Time;durP1;ratioP1;P1;durP2;ratioP2;P2;SDS_P1;SDS_P2;PMS_P1;PMS_P2;Temp;Humidity;BMP_temperature;BMP_pressure;BME280_temperature;BME280_humidity;BME280_pressure;Samples;Min_cycle;Max_cycle;Signal;HPM_P1;HPM_P2
2023/07/01 00:01:04;;;;;;;79.97;50.20;;;27.30;99.90;;;;;;5056217;28;20473;-64
2023/07/01 00:03:31;;;;;;;84.85;58.22;;;27.40;99.90;;;;;;5036649;28;20112;-65
2023/07/01 00:05:58;;;;;;;83.38;51.25;;;27.50;99.90;;;;;;5036118;28;20104;-65
2023/07/01 00:08:25;;;;;;;73.55;50.42;;;27.50;99.90;;;;;;5035710;28;20448;-65
2023/07/01 00:10:52;;;;;;;89.72;62.38;;;27.40;99.90;;;;;;5036168;28;20164;-65
2023/07/01 00:13:19;;;;;;;110.20;66.78;;;27.40;99.90;;;;;;5053983;28;20098;-64
2023/07/01 00:15:45;;;;;;;96.70;66.10;;;27.30;99.90;;;;;;5047010;28;20124;-64
2023/07/01 00:18:12;;;;;;;102.72;66.90;;;27.30;99.90;;;;;;5036486;28;20041;-64
2023/07/01 00:20:38;;;;;;;89.72;60.80;;;27.30;99.90;;;;;;5022156;28;20026;-65
2023/07/01 00:23:05;;;;;;;77.70;55.50;;;27.30;99.90;;;;;;5036103;28;20105;-64
2023/07/01 00:25:31;;;;;;;78.30;55.45;;;27.40;99.90;;;;;;5039353;28;20024;-65
2023/07/01 00:27:58;;;;;;;79.28;55.33;;;27.40;99.90;;;;;;5056048;28;20021;-66
2023/07/01 00:30:24;;;;;;;75.00;55.20;;;27.40;99.90;;;;;;5043717;28;20024;-65
2023/07/01 00:32:51;;;;;;;77.50;56.22;;;27.40;99.90;;;;;;5036088;28;20021;-66
2023/07/01 00:35:17;;;;;;;80.60;55.08;;;27.30;99.90;;;;;;5031922;28;20147;-64
2023/07/01 00:37:44;;;;;;;90.85;57.90;;;27.30;99.90;;;;;;5034530;28;20434;-65
2023/07/01 00:40:11;;;;;;;87.25;56.75;;;27.30;99.90;;;;;;5036770;28;20033;-65
2023/07/01 00:42:37;;;;;;;86.85;55.10;;;27.30;99.90;;;;;;5055436;28;20068;-65
2023/07/01 00:45:05;;;;;;;78.50;55.25;;;27.30;99.90;;;;;;5041872;28;20497;-66
2023/07/01 00:47:31;;;;;;;81.57;57.97;;;27.30;99.90;;;;;;5034186;28;20132;-67
2023/07/01 00:49:58;;;;;;;79.75;55.40;;;27.40;99.90;;;;;;5055217;28;20040;-66
2023/07/01 00:52:25;;;;;;;80.95;54.88;;;27.50;99.90;;;;;;5055053;28;20036;-66
2023/07/01 00:54:51;;;;;;;79.50;55.90;;;27.50;99.90;;;;;;5055628;28;20128;-67
2023/07/01 00:57:18;;;;;;;88.65;59.38;;;27.60;99.90;;;;;;5055229;28;20021;-68
2023/07/01 00:59:44;;;;;;;87.07;58.38;;;27.70;99.90;;;;;;5039961;28;20021;-69
2023/07/01 01:02:20;;;;;;;83.18;57.58;;;27.70;99.90;;;;;;5034082;28;20033;-64
2023/07/01 01:05:01;;;;;;;77.80;59.35;;;27.70;99.90;;;;;;5035199;28;20021;-64
2023/07/01 01:07:36;;;;;;;87.50;62.22;;;27.80;99.90;;;;;;5034272;28;20030;-64
2023/07/01 01:10:13;;;;;;;87.68;60.08;;;27.80;99.90;;;;;;5041213;28;20044;-64
2023/07/01 01:12:44;;;;;;;125.05;90.15;;;27.80;99.90;;;;;;5055182;28;20017;-64
2023/07/01 01:15:12;;;;;;;331.98;299.20;;;27.80;99.90;;;;;;5038184;28;20083;-63
2023/07/01 01:17:41;;;;;;;120.43;107.20;;;27.80;99.90;;;;;;5032074;28;20041;-64
2023/07/01 01:20:13;;;;;;;80.72;60.08;;;27.80;99.90;;;;;;5034654;28;20486;-64
2023/07/01 01:22:53;;;;;;;415.63;273.63;;;27.90;99.90;;;;;;5023373;28;20040;-65
2023/07/01 01:25:27;;;;;;;171.45;114.18;;;27.90;99.90;;;;;;5033843;28;20106;-65
2023/07/01 01:27:57;;;;;;;87.70;58.78;;;27.90;99.90;;;;;;5034544;28;20029;-65
2023/07/01 01:30:24;;;;;;;83.05;62.05;;;28.00;99.90;;;;;;5033216;28;20032;-63
2023/07/01 01:32:51;;;;;;;81.55;53.55;;;28.00;99.90;;;;;;5034347;28;20014;-64
2023/07/01 01:35:18;;;;;;;76.88;52.53;;;28.00;99.90;;;;;;5035252;28;20055;-65
2023/07/01 01:38:03;;;;;;;68.60;50.42;;;28.20;99.90;;;;;;5032954;28;20033;-65
2023/07/01 01:40:35;;;;;;;74.43;51.05;;;28.20;99.90;;;;;;5023940;28;20363;-65
2023/07/01 01:43:16;;;;;;;292.90;192.30;;;28.20;99.90;;;;;;5025403;28;20037;-64
2023/07/01 01:45:44;;;;;;;112.97;69.15;;;28.10;99.90;;;;;;5035373;28;20040;-64
2023/07/01 01:48:12;;;;;;;93.53;58.85;;;28.10;99.90;;;;;;5037539;28;20205;-64
2023/07/01 01:50:40;;;;;;;218.65;150.23;;;28.20;99.90;;;;;;5036878;28;20041;-63
2023/07/01 01:53:08;;;;;;;75.75;51.97;;;28.20;99.90;;;;;;5034112;28;20029;-64
2023/07/01 01:55:35;;;;;;;74.05;53.40;;;28.20;99.90;;;;;;5032426;28;20018;-64
2023/07/01 01:58:02;;;;;;;78.35;52.10;;;28.20;99.90;;;;;;5025723;28;20029;-64
2023/07/01 02:00:31;;;;;;;78.72;52.17;;;28.20;99.90;;;;;;5034930;28;20493;-66
2023/07/01 02:02:58;;;;;;;73.13;51.40;;;28.20;99.90;;;;;;5043011;28;20052;-65
2023/07/01 02:05:24;;;;;;;76.18;54.25;;;28.20;99.90;;;;;;5042588;28;20080;-64
2023/07/01 02:07:51;;;;;;;77.50;53.25;;;28.30;99.90;;;;;;5039702;28;20079;-64
2023/07/01 02:10:19;;;;;;;77.45;51.80;;;28.30;99.90;;;;;;5040282;28;20079;-63
2023/07/01 02:12:46;;;;;;;74.38;50.45;;;28.30;99.90;;;;;;5045008;28;20029;-64
2023/07/01 02:15:13;;;;;;;77.35;50.90;;;28.30;99.90;;;;;;5040037;28;20429;-64
2023/07/01 02:17:39;;;;;;;62.78;45.65;;;28.30;99.90;;;;;;5042706;28;20055;-64
2023/07/01 02:20:06;;;;;;;71.30;47.88;;;28.40;99.90;;;;;;5042615;28;20538;-67
2023/07/01 02:22:33;;;;;;;71.28;47.33;;;28.40;99.90;;;;;;5045257;28;20064;-66
2023/07/01 02:24:59;;;;;;;87.68;55.85;;;28.40;99.90;;;;;;5044037;28;20033;-66
2023/07/01 02:27:26;;;;;;;65.03;46.80;;;28.30;99.90;;;;;;5043626;28;20110;-65
2023/07/01 02:29:52;;;;;;;69.93;47.70;;;28.30;99.90;;;;;;5043014;28;20089;-66
2023/07/01 02:32:19;;;;;;;79.72;52.53;;;28.40;99.90;;;;;;5045524;28;20071;-65
2023/07/01 02:34:46;;;;;;;65.15;48.38;;;28.40;99.90;;;;;;5044458;28;20103;-66
2023/07/01 02:37:13;;;;;;;65.68;44.55;;;28.40;99.90;;;;;;5045707;28;20033;-66
2023/07/01 02:39:39;;;;;;;62.80;45.78;;;28.40;99.90;;;;;;5041534;28;20594;-64
2023/07/01 02:42:06;;;;;;;123.40;75.07;;;28.50;99.90;;;;;;5041773;28;20022;-66
2023/07/01 02:44:33;;;;;;;1065.28;818.47;;;28.50;99.90;;;;;;5038867;28;20026;-65
2023/07/01 02:47:00;;;;;;;1631.25;999.90;;;28.50;99.90;;;;;;5039677;28;20036;-66
2023/07/01 02:49:27;;;;;;;1660.18;999.90;;;28.50;99.90;;;;;;5041000;28;20037;-66
2023/07/01 02:51:53;;;;;;;1707.82;999.90;;;28.60;99.90;;;;;;5039713;28;20043;-66
2023/07/01 02:54:20;;;;;;;1683.82;999.90;;;28.60;99.90;;;;;;5040981;28;20129;-67
2023/07/01 02:56:46;;;;;;;1668.82;999.90;;;28.60;99.90;;;;;;5013559;28;20030;-66
2023/07/01 02:59:13;;;;;;;1670.70;999.90;;;28.60;99.90;;;;;;5030610;28;20021;-66
2023/07/01 03:01:40;;;;;;;1095.35;983.90;;;28.60;99.90;;;;;;5038454;28;20382;-66
2023/07/01 03:04:07;;;;;;;762.83;687.45;;;28.70;99.90;;;;;;5040376;28;20409;-66
2023/07/01 03:06:35;;;;;;;719.95;648.85;;;28.70;99.90;;;;;;5041691;28;20009;-66
2023/07/01 03:09:07;;;;;;;583.05;522.80;;;28.80;99.90;;;;;;5042195;28;20060;-67
2023/07/01 03:11:36;;;;;;;598.60;537.25;;;28.80;99.90;;;;;;5040374;28;20371;-64
2023/07/01 03:14:03;;;;;;;693.08;622.55;;;28.90;99.90;;;;;;5041463;28;20026;-64
2023/07/01 03:16:32;;;;;;;644.33;578.25;;;29.00;99.90;;;;;;5045063;28;20063;-65
2023/07/01 03:18:59;;;;;;;627.22;564.35;;;29.00;99.90;;;;;;5045977;28;20025;-65
2023/07/01 03:21:26;;;;;;;685.47;616.58;;;29.10;99.90;;;;;;5045505;28;20032;-66
2023/07/01 03:23:53;;;;;;;644.50;579.70;;;29.10;99.90;;;;;;5046125;28;20017;-66
2023/07/01 03:26:20;;;;;;;672.17;605.78;;;29.20;99.90;;;;;;5045856;28;20079;-64
2023/07/01 03:28:49;;;;;;;562.20;504.52;;;29.20;99.90;;;;;;5046407;28;20024;-65
2023/07/01 03:31:16;;;;;;;591.42;532.00;;;29.20;99.90;;;;;;5040275;28;20033;-65
2023/07/01 03:33:43;;;;;;;451.58;403.35;;;29.20;99.90;;;;;;5044986;28;20027;-65
2023/07/01 03:36:09;;;;;;;418.83;374.75;;;29.20;99.90;;;;;;5043167;28;20485;-65
2023/07/01 03:38:36;;;;;;;423.08;379.05;;;29.30;99.90;;;;;;5050106;28;20029;-65
2023/07/01 03:41:02;;;;;;;443.83;396.85;;;29.40;99.90;;;;;;5056762;28;20036;-65
2023/07/01 03:43:29;;;;;;;458.98;410.77;;;29.30;99.90;;;;;;5056880;28;20039;-64
2023/07/01 03:45:56;;;;;;;527.10;471.35;;;29.30;99.90;;;;;;5043779;28;20030;-63
2023/07/01 03:48:22;;;;;;;566.65;508.10;;;29.40;99.90;;;;;;5045310;28;20044;-65
2023/07/01 03:50:49;;;;;;;631.50;566.80;;;29.50;99.90;;;;;;5056476;28;20040;-64
2023/07/01 03:53:16;;;;;;;560.20;501.15;;;29.40;99.90;;;;;;5056548;28;20545;-64
2023/07/01 03:55:42;;;;;;;671.10;603.20;;;29.50;99.90;;;;;;5036679;28;20138;-65
2023/07/01 03:58:09;;;;;;;767.28;690.10;;;29.60;99.90;;;;;;5036510;28;20071;-66
2023/07/01 04:00:35;;;;;;;1250.22;999.90;;;29.60;99.90;;;;;;5026555;28;20029;-65
2023/07/01 04:03:05;;;;;;;747.13;673.97;;;29.70;99.90;;;;;;5021981;28;20060;-65
2023/07/01 04:05:34;;;;;;;771.10;695.25;;;29.90;99.90;;;;;;5018726;28;20061;-66
2023/07/01 04:08:01;;;;;;;719.80;648.55;;;29.90;99.90;;;;;;5056489;28;20037;-67
2023/07/01 04:10:28;;;;;;;758.67;684.53;;;30.10;99.90;;;;;;5035420;28;20402;-67
2023/07/01 04:12:58;;;;;;;720.65;649.50;;;30.30;99.90;;;;;;5034363;28;20026;-66
2023/07/01 04:15:25;;;;;;;804.55;726.65;;;30.30;99.90;;;;;;5036170;28;20029;-66
2023/07/01 04:17:51;;;;;;;842.78;759.53;;;30.20;99.90;;;;;;5036061;28;20477;-66
2023/07/01 04:20:20;;;;;;;851.55;767.50;;;30.30;99.90;;;;;;5049887;28;20042;-66
2023/07/01 04:22:48;;;;;;;878.03;790.92;;;30.50;99.90;;;;;;5048486;28;20531;-65
2023/07/01 04:25:14;;;;;;;874.33;786.78;;;30.50;99.90;;;;;;5053304;28;20043;-68
2023/07/01 04:27:42;;;;;;;909.67;818.63;;;30.60;99.90;;;;;;5053647;28;20025;-68
2023/07/01 04:30:10;;;;;;;1044.05;939.67;;;30.70;99.90;;;;;;5047849;28;20397;-67
2023/07/01 04:32:37;;;;;;;1222.75;999.90;;;30.70;99.90;;;;;;5050703;28;20113;-67
2023/07/01 04:35:04;;;;;;;813.20;733.05;;;30.70;99.90;;;;;;5023700;28;20072;-66
2023/07/01 04:37:30;;;;;;;502.83;450.65;;;30.80;99.90;;;;;;5037724;28;20430;-66
2023/07/01 04:39:57;;;;;;;508.90;456.00;;;30.80;99.90;;;;;;5035972;28;20097;-66
2023/07/01 04:42:23;;;;;;;537.58;481.80;;;30.80;99.90;;;;;;5031719;28;20446;-65
2023/07/01 04:44:58;;;;;;;520.45;465.75;;;30.90;99.90;;;;;;5037899;28;20043;-66
2023/07/01 04:47:26;;;;;;;624.70;561.05;;;30.80;99.90;;;;;;5055842;28;20025;-65
2023/07/01 04:49:52;;;;;;;649.97;583.50;;;30.80;99.90;;;;;;5050952;28;20140;-65
2023/07/01 04:52:23;;;;;;;780.42;701.60;;;30.70;99.90;;;;;;5034929;28;20068;-64
2023/07/01 04:54:50;;;;;;;762.17;686.72;;;30.80;99.90;;;;;;5035468;28;20100;-65
2023/07/01 04:57:17;;;;;;;728.15;655.90;;;30.90;99.90;;;;;;5036171;28;20074;-65
2023/07/01 04:59:44;;;;;;;775.22;698.85;;;30.90;99.90;;;;;;5049873;28;20386;-66
2023/07/01 05:02:10;;;;;;;624.88;562.45;;;31.10;99.90;;;;;;5043642;28;20025;-66
2023/07/01 05:04:38;;;;;;;1128.90;999.40;;;31.10;99.90;;;;;;5037246;28;20110;-66
2023/07/01 05:07:05;;;;;;;715.92;644.83;;;31.10;99.90;;;;;;5043617;28;20010;-66
2023/07/01 05:09:32;;;;;;;1000.13;899.45;;;31.20;99.90;;;;;;5041886;28;20032;-65
2023/07/01 05:11:59;;;;;;;741.38;667.88;;;31.30;99.90;;;;;;5042832;28;20088;-67
2023/07/01 05:14:25;;;;;;;866.65;779.63;;;31.40;99.90;;;;;;5042288;28;20367;-65
2023/07/01 05:16:52;;;;;;;922.80;825.60;;;31.50;99.90;;;;;;5035776;28;20096;-66
2023/07/01 05:19:18;;;;;;;662.83;596.72;;;31.50;99.90;;;;;;5032556;28;20033;-65
2023/07/01 05:21:50;;;;;;;739.15;666.45;;;31.50;99.90;;;;;;5035393;28;20044;-65
2023/07/01 05:24:17;;;;;;;962.10;864.33;;;31.40;99.90;;;;;;5035941;28;20088;-65
2023/07/01 05:26:49;;;;;;;1174.97;999.90;;;31.30;99.90;;;;;;5033646;28;20275;-66
2023/07/01 05:29:16;;;;;;;369.55;331.67;;;31.30;99.90;;;;;;5035411;28;20064;-66
2023/07/01 05:31:43;;;;;;;384.50;344.13;;;31.30;99.90;;;;;;5034957;28;20107;-65
2023/07/01 05:34:09;;;;;;;401.95;359.67;;;31.30;99.90;;;;;;5039933;28;20029;-66
2023/07/01 05:36:37;;;;;;;394.92;353.48;;;31.30;99.90;;;;;;5041879;28;20449;-66
2023/07/01 05:39:04;;;;;;;375.73;337.20;;;31.30;99.90;;;;;;5042016;28;20025;-68
2023/07/01 05:41:31;;;;;;;371.83;332.70;;;31.30;99.90;;;;;;5048926;28;20035;-67
2023/07/01 05:43:58;;;;;;;393.67;352.83;;;31.30;99.90;;;;;;5033928;28;20057;-67
2023/07/01 05:46:24;;;;;;;397.98;355.75;;;31.30;99.90;;;;;;5039011;28;20071;-66
2023/07/01 05:48:51;;;;;;;374.70;335.35;;;31.30;99.90;;;;;;5050275;28;20052;-68
2023/07/01 05:51:17;;;;;;;364.33;326.60;;;31.20;99.90;;;;;;5039042;28;20065;-66
2023/07/01 05:53:46;;;;;;;409.17;365.15;;;31.30;99.90;;;;;;5038936;28;20032;-68
2023/07/01 05:56:13;;;;;;;423.60;378.67;;;31.30;99.90;;;;;;5039282;28;20064;-68
2023/07/01 05:58:39;;;;;;;421.38;375.85;;;31.30;99.90;;;;;;5037853;28;20097;-66
2023/07/01 06:01:06;;;;;;;476.50;425.83;;;31.30;99.90;;;;;;5047017;28;20032;-67
2023/07/01 06:03:33;;;;;;;490.15;437.98;;;31.40;99.90;;;;;;5034287;28;20036;-66
2023/07/01 06:05:59;;;;;;;559.47;501.15;;;31.50;99.90;;;;;;5033756;28;20041;-66
2023/07/01 06:08:26;;;;;;;524.60;469.70;;;31.50;99.90;;;;;;5032590;28;20064;-66
2023/07/01 06:10:52;;;;;;;642.55;577.00;;;31.50;99.90;;;;;;5041646;28;20041;-66
2023/07/01 06:13:19;;;;;;;729.42;655.85;;;31.50;99.90;;;;;;5021788;28;20052;-67
2023/07/01 06:15:46;;;;;;;1150.20;999.90;;;31.50;99.90;;;;;;5028611;28;20053;-67
2023/07/01 06:18:12;;;;;;;1554.80;999.90;;;31.40;99.90;;;;;;5030744;28;20121;-67
2023/07/01 06:20:39;;;;;;;1401.60;999.90;;;31.40;99.90;;;;;;5023144;28;20033;-64
2023/07/01 06:23:06;;;;;;;1392.50;999.90;;;31.40;99.90;;;;;;5035418;28;20398;-64
2023/07/01 06:25:32;;;;;;;1485.38;999.90;;;31.40;99.90;;;;;;5043016;28;20083;-64
2023/07/01 06:27:59;;;;;;;1086.05;968.78;;;31.40;99.90;;;;;;5042243;28;20025;-67
2023/07/01 06:30:25;;;;;;;1471.93;999.90;;;31.30;99.90;;;;;;5039568;28;20032;-66
2023/07/01 06:32:52;;;;;;;1652.18;999.90;;;31.40;99.90;;;;;;5043209;28;20104;-68
2023/07/01 06:35:19;;;;;;;998.40;867.00;;;31.50;99.90;;;;;;5041598;28;20029;-66
2023/07/01 06:37:46;;;;;;;1389.25;999.90;;;31.40;99.90;;;;;;5038471;28;20103;-66
2023/07/01 06:40:12;;;;;;;1448.43;999.90;;;31.50;99.90;;;;;;5040140;28;20033;-65
2023/07/01 06:42:40;;;;;;;580.20;521.15;;;31.50;99.90;;;;;;5029346;28;20022;-65
2023/07/01 06:45:07;;;;;;;529.42;475.63;;;31.50;99.90;;;;;;5025434;28;20029;-63
2023/07/01 06:47:33;;;;;;;349.60;314.85;;;31.50;99.90;;;;;;5033622;28;20078;-63
2023/07/01 06:50:00;;;;;;;322.10;290.35;;;31.50;99.90;;;;;;5033639;28;20498;-64
2023/07/01 06:52:26;;;;;;;307.00;276.85;;;31.50;99.90;;;;;;5033647;28;20091;-64
2023/07/01 06:54:53;;;;;;;249.95;226.02;;;31.50;99.90;;;;;;5027215;28;20540;-63
2023/07/01 06:57:19;;;;;;;190.57;173.45;;;31.50;99.90;;;;;;5032104;28;20037;-65
2023/07/01 06:59:46;;;;;;;195.55;178.23;;;31.40;99.90;;;;;;5032138;28;20078;-66
2023/07/01 07:02:13;;;;;;;118.93;108.40;;;31.30;99.90;;;;;;5033563;28;20037;-64
2023/07/01 07:04:39;;;;;;;100.22;90.05;;;31.30;99.90;;;;;;5032085;28;20029;-66
2023/07/01 07:07:06;;;;;;;70.05;60.95;;;31.30;99.90;;;;;;5045979;28;20028;-66
2023/07/01 07:09:32;;;;;;;39.40;35.40;;;31.30;99.90;;;;;;5047558;28;20030;-65
2023/07/01 07:11:59;;;;;;;58.63;50.45;;;31.30;99.90;;;;;;5040788;28;20154;-64
2023/07/01 07:14:26;;;;;;;45.03;40.17;;;31.30;99.90;;;;;;5037482;28;20441;-67
2023/07/01 07:16:52;;;;;;;43.78;39.00;;;31.30;99.90;;;;;;5046355;28;20040;-67
2023/07/01 07:19:19;;;;;;;41.00;36.78;;;31.30;99.90;;;;;;5052768;28;20541;-66
2023/07/01 07:21:46;;;;;;;25.77;22.23;;;31.30;99.90;;;;;;5057405;28;20113;-66
2023/07/01 07:24:13;;;;;;;25.63;20.58;;;31.30;99.90;;;;;;5057132;28;20036;-66
2023/07/01 07:26:42;;;;;;;28.20;20.92;;;31.30;99.90;;;;;;5056823;28;20083;-66
2023/07/01 07:29:08;;;;;;;29.60;21.33;;;31.40;99.90;;;;;;5057041;28;20052;-66
2023/07/01 07:31:35;;;;;;;27.83;21.25;;;31.30;99.90;;;;;;5056588;28;20026;-66
2023/07/01 07:34:02;;;;;;;33.53;25.17;;;31.30;99.90;;;;;;5056544;28;20025;-66
2023/07/01 07:36:28;;;;;;;28.63;22.08;;;31.40;99.90;;;;;;5056993;28;20390;-65
2023/07/01 07:38:56;;;;;;;29.80;21.55;;;31.40;99.90;;;;;;5056425;28;20041;-66
2023/07/01 07:41:22;;;;;;;21.08;17.77;;;31.50;99.90;;;;;;5032086;28;20038;-66
2023/07/01 07:43:49;;;;;;;25.92;19.77;;;31.60;99.90;;;;;;5026013;28;20041;-66
2023/07/01 07:46:16;;;;;;;28.77;22.15;;;31.60;99.90;;;;;;5016784;28;20068;-66
2023/07/01 07:48:42;;;;;;;40.95;23.73;;;31.80;99.90;;;;;;5036333;28;20034;-66
2023/07/01 07:51:09;;;;;;;35.83;28.33;;;32.00;99.90;;;;;;5036035;28;20054;-66
2023/07/01 07:53:35;;;;;;;31.30;22.45;;;32.10;99.90;;;;;;5036186;28;20025;-66
2023/07/01 07:56:02;;;;;;;31.45;19.25;;;32.20;99.90;;;;;;5025906;28;20467;-67
2023/07/01 07:58:28;;;;;;;31.30;22.15;;;32.30;99.90;;;;;;5016436;28;20178;-66
2023/07/01 08:00:55;;;;;;;39.28;22.40;;;32.30;99.90;;;;;;5016471;28;20119;-66
2023/07/01 08:03:22;;;;;;;28.90;21.55;;;32.40;99.90;;;;;;5016500;28;20030;-66
2023/07/01 08:05:50;;;;;;;67.80;35.95;;;32.40;99.90;;;;;;5016581;28;20025;-65
2023/07/01 08:08:17;;;;;;;34.53;24.38;;;32.30;99.90;;;;;;5034326;28;20385;-66
2023/07/01 08:10:45;;;;;;;26.60;20.17;;;32.10;99.90;;;;;;5045337;28;20532;-66
2023/07/01 08:13:13;;;;;;;32.75;23.48;;;32.00;99.90;;;;;;5046479;28;20082;-66
2023/07/01 08:15:42;;;;;;;26.40;19.90;;;31.80;99.90;;;;;;5045134;28;20026;-66
2023/07/01 08:18:09;;;;;;;19.77;15.55;;;31.90;99.90;;;;;;5044158;28;20028;-65
2023/07/01 08:20:35;;;;;;;30.23;19.63;;;31.90;99.90;;;;;;5046595;28;20025;-66
2023/07/01 08:23:02;;;;;;;25.73;15.25;;;31.80;99.90;;;;;;5045356;28;20032;-65
2023/07/01 08:25:28;;;;;;;20.55;14.85;;;31.80;99.90;;;;;;5044763;28;20052;-70
2023/07/01 08:27:55;;;;;;;18.17;13.32;;;31.80;99.90;;;;;;5046582;28;20021;-65
2023/07/01 08:30:22;;;;;;;21.30;13.57;;;31.80;99.90;;;;;;5050567;28;20055;-67
2023/07/01 08:32:49;;;;;;;17.30;13.45;;;31.80;99.90;;;;;;5047137;28;20126;-64
2023/07/01 08:35:15;;;;;;;34.17;25.20;;;31.70;99.90;;;;;;5046321;28;20032;-65
2023/07/01 08:37:43;;;;;;;33.60;24.35;;;31.70;99.90;;;;;;5044968;28;20071;-64
2023/07/01 08:40:10;;;;;;;31.80;21.35;;;31.60;99.90;;;;;;5044480;28;20504;-65
2023/07/01 08:43:02;;;;;;;34.08;23.00;;;31.50;99.90;;;;;;5044197;28;20116;-65
2023/07/01 08:45:31;;;;;;;30.07;21.40;;;31.40;99.90;;;;;;5043737;28;20536;-65
2023/07/01 08:48:00;;;;;;;32.10;22.10;;;31.30;99.90;;;;;;5041470;28;20024;-65
2023/07/01 08:50:37;;;;;;;30.38;21.67;;;31.10;99.90;;;;;;5044570;28;20045;-68
2023/07/01 08:53:07;;;;;;;30.88;22.48;;;31.00;99.90;;;;;;5043274;28;20036;-66
2023/07/01 08:55:34;;;;;;;32.45;20.65;;;30.90;99.90;;;;;;5043848;28;20021;-65
2023/07/01 08:58:02;;;;;;;38.35;24.35;;;30.90;99.90;;;;;;5045422;28;20025;-67
2023/07/01 09:00:30;;;;;;;30.05;21.98;;;30.80;99.90;;;;;;5045700;28;20032;-64
2023/07/01 09:02:57;;;;;;;34.33;22.50;;;30.70;99.90;;;;;;5043796;28;20443;-65
2023/07/01 09:05:24;;;;;;;29.83;20.77;;;30.70;99.90;;;;;;5044935;28;20470;-66
2023/07/01 09:07:50;;;;;;;32.60;21.90;;;30.60;99.90;;;;;;5045607;28;20025;-66
2023/07/01 09:10:18;;;;;;;31.55;22.27;;;30.60;99.90;;;;;;5043610;28;20023;-68
2023/07/01 09:12:44;;;;;;;32.58;20.50;;;30.50;99.90;;;;;;5044766;28;20017;-66
2023/07/01 09:15:11;;;;;;;34.38;22.30;;;30.60;99.90;;;;;;5045480;28;20025;-66
2023/07/01 09:17:39;;;;;;;30.77;20.25;;;30.60;99.90;;;;;;5040809;28;20022;-67
2023/07/01 09:20:11;;;;;;;64.97;35.47;;;30.60;99.90;;;;;;5044449;28;20024;-67
2023/07/01 09:22:40;;;;;;;74.90;47.55;;;30.60;99.90;;;;;;5041055;28;20025;-70
2023/07/01 09:25:07;;;;;;;103.50;67.28;;;30.50;99.90;;;;;;5044081;28;20024;-66
2023/07/01 09:27:46;;;;;;;72.93;45.25;;;30.40;99.90;;;;;;5045485;28;20025;-66
2023/07/01 09:30:23;;;;;;;49.72;34.92;;;30.30;99.90;;;;;;5043692;28;20658;-66
2023/07/01 09:32:49;;;;;;;81.93;39.50;;;30.10;99.90;;;;;;5044960;28;20044;-66
2023/07/01 09:35:16;;;;;;;83.80;38.90;;;30.00;99.90;;;;;;5043289;28;20474;-67
2023/07/01 09:37:43;;;;;;;64.88;35.85;;;29.80;99.90;;;;;;5044527;28;20025;-66
2023/07/01 09:40:21;;;;;;;49.03;29.33;;;29.70;99.90;;;;;;5044847;28;20390;-66
2023/07/01 09:42:56;;;;;;;52.13;30.08;;;29.60;99.90;;;;;;5043075;28;20068;-66
2023/07/01 09:45:22;;;;;;;62.53;32.67;;;29.60;99.90;;;;;;5043825;28;20021;-67
2023/07/01 09:47:52;;;;;;;45.80;27.67;;;29.60;99.90;;;;;;5043580;28;20040;-68
2023/07/01 09:50:23;;;;;;;60.40;31.52;;;29.50;99.90;;;;;;5044497;28;20111;-66
2023/07/01 09:52:50;;;;;;;76.25;38.25;;;29.60;99.90;;;;;;5044458;28;20025;-67
2023/07/01 09:55:17;;;;;;;47.75;27.02;;;29.50;99.90;;;;;;5039609;28;20049;-65
2023/07/01 09:57:44;;;;;;;35.88;22.77;;;29.50;99.90;;;;;;5034121;28;20025;-69
2023/07/01 10:00:15;;;;;;;33.55;23.90;;;29.40;99.90;;;;;;5033627;28;20120;-69
2023/07/01 10:02:49;;;;;;;38.78;24.00;;;29.30;99.90;;;;;;5033171;28;20026;-65
2023/07/01 10:05:16;;;;;;;68.90;38.60;;;29.40;99.90;;;;;;5033768;28;20045;-66
2023/07/01 10:07:45;;;;;;;97.00;43.25;;;29.30;99.90;;;;;;5033829;28;20033;-67
2023/07/01 10:10:16;;;;;;;203.88;117.20;;;29.20;99.90;;;;;;5031418;28;20121;-67
2023/07/01 10:12:47;;;;;;;130.63;57.40;;;29.20;99.90;;;;;;5022999;28;20029;-65
2023/07/01 10:15:17;;;;;;;54.40;29.75;;;29.10;99.90;;;;;;5021327;28;20087;-67
2023/07/01 10:17:46;;;;;;;64.20;32.85;;;29.30;99.90;;;;;;5030228;28;20030;-66
2023/07/01 10:20:34;;;;;;;113.32;46.97;;;29.20;99.90;;;;;;5035353;28;20068;-65
2023/07/01 10:23:03;;;;;;;62.92;31.88;;;29.20;99.90;;;;;;5048688;28;20544;-66
2023/07/01 10:25:39;;;;;;;87.18;48.50;;;29.20;99.90;;;;;;5034309;28;20029;-65
2023/07/01 10:28:09;;;;;;;117.20;77.32;;;29.20;99.90;;;;;;5033836;28;20025;-65
2023/07/01 10:30:55;;;;;;;76.20;60.78;;;29.30;99.90;;;;;;5034391;28;20536;-65
2023/07/01 10:33:32;;;;;;;47.08;31.58;;;29.30;99.90;;;;;;5039003;28;20037;-67
2023/07/01 10:36:04;;;;;;;65.78;56.20;;;29.20;99.90;;;;;;5043530;28;20024;-66
2023/07/01 10:38:32;;;;;;;27.27;20.25;;;29.40;99.90;;;;;;5045853;28;20029;-66
2023/07/01 10:40:59;;;;;;;27.25;18.40;;;29.20;99.90;;;;;;5036610;28;20022;-65
2023/07/01 10:43:29;;;;;;;45.38;30.38;;;29.40;99.90;;;;;;5034317;28;20036;-65
2023/07/01 10:46:24;;;;;;;63.28;42.47;;;29.30;99.90;;;;;;5033402;28;20025;-65
2023/07/01 10:49:11;;;;;;;52.33;37.08;;;29.30;99.90;;;;;;5032407;28;20025;-65
2023/07/01 10:51:46;;;;;;;61.95;42.85;;;29.20;99.90;;;;;;5032066;28;20108;-65
2023/07/01 10:54:29;;;;;;;45.85;30.58;;;29.30;99.90;;;;;;5033548;28;20544;-63
2023/07/01 10:57:18;;;;;;;32.83;23.08;;;29.20;99.90;;;;;;5032810;28;20025;-66
2023/07/01 10:59:45;;;;;;;160.82;111.75;;;29.10;99.90;;;;;;5030998;28;20075;-63
2023/07/01 11:02:31;;;;;;;64.10;46.78;;;29.00;99.90;;;;;;5033661;28;20549;-64
2023/07/01 11:05:03;;;;;;;61.28;45.10;;;28.90;99.90;;;;;;5033045;28;20371;-64
2023/07/01 11:07:31;;;;;;;66.88;47.28;;;28.80;99.90;;;;;;5033165;28;20038;-64
2023/07/01 11:09:58;;;;;;;58.60;41.25;;;28.90;99.90;;;;;;5045046;28;20041;-62
2023/07/01 11:12:27;;;;;;;41.05;23.58;;;28.80;99.90;;;;;;5038189;28;20025;-68
2023/07/01 11:14:54;;;;;;;37.05;22.65;;;28.80;99.90;;;;;;5025716;28;20075;-64
2023/07/01 11:17:23;;;;;;;32.92;21.52;;;28.70;99.90;;;;;;5032721;28;20113;-64
2023/07/01 11:19:58;;;;;;;80.30;52.72;;;28.70;99.90;;;;;;5031816;28;20029;-64
2023/07/01 11:22:25;;;;;;;175.55;113.50;;;28.80;99.90;;;;;;5035274;28;20042;-65
2023/07/01 11:24:53;;;;;;;52.72;35.75;;;28.80;99.90;;;;;;5030239;28;20021;-63
2023/07/01 11:27:21;;;;;;;63.90;49.70;;;28.80;99.90;;;;;;5028471;28;20693;-64
2023/07/01 11:29:48;;;;;;;36.47;25.33;;;28.70;99.90;;;;;;5035576;28;20076;-65
2023/07/01 11:32:14;;;;;;;32.95;23.75;;;28.60;99.90;;;;;;5048645;28;21614;-62
2023/07/01 11:34:48;;;;;;;20.65;14.32;;;28.60;99.90;;;;;;5038181;28;20053;-63
2023/07/01 11:37:25;;;;;;;119.20;82.75;;;28.50;99.90;;;;;;5032551;28;20119;-63
2023/07/01 11:39:52;;;;;;;106.30;64.75;;;28.40;99.90;;;;;;5031895;28;20029;-67
2023/07/01 11:42:19;;;;;;;24.20;17.55;;;28.40;99.90;;;;;;5031445;28;20030;-63
2023/07/01 11:44:46;;;;;;;37.58;26.85;;;28.40;99.90;;;;;;5047347;28;20034;-63
2023/07/01 11:47:14;;;;;;;37.50;24.92;;;28.30;99.90;;;;;;5030943;28;20036;-64
2023/07/01 11:49:42;;;;;;;42.13;31.60;;;28.40;99.90;;;;;;5026897;28;20133;-64
2023/07/01 11:52:09;;;;;;;37.83;19.58;;;28.50;99.90;;;;;;5040221;28;20036;-63
2023/07/01 11:54:37;;;;;;;90.53;59.13;;;28.40;99.90;;;;;;5038808;28;20030;-64
2023/07/01 11:57:24;;;;;;;88.75;61.00;;;28.50;99.90;;;;;;5041477;28;20056;-64
2023/07/01 11:59:54;;;;;;;42.55;27.23;;;28.40;99.90;;;;;;5037744;28;20018;-64
2023/07/01 12:02:31;;;;;;;32.75;22.27;;;28.30;99.90;;;;;;5040262;28;20075;-64
2023/07/01 12:04:59;;;;;;;25.63;19.35;;;28.20;99.90;;;;;;5037561;28;20179;-64
2023/07/01 12:07:26;;;;;;;21.27;15.23;;;28.20;99.90;;;;;;5037646;28;20017;-64
2023/07/01 12:09:53;;;;;;;101.45;75.35;;;28.20;99.90;;;;;;5033857;28;20526;-64
2023/07/01 12:12:40;;;;;;;87.38;57.90;;;28.10;99.90;;;;;;5054277;28;20488;-63
2023/07/01 12:15:11;;;;;;;56.47;37.88;;;28.00;99.90;;;;;;5042670;28;20074;-63
2023/07/01 12:17:40;;;;;;;24.67;16.93;;;28.00;99.90;;;;;;5042033;28;20033;-64
2023/07/01 12:20:08;;;;;;;42.58;29.98;;;27.90;99.90;;;;;;5052477;28;20151;-64
2023/07/01 12:22:35;;;;;;;26.50;16.67;;;27.80;99.90;;;;;;5057037;28;20025;-63
2023/07/01 12:25:02;;;;;;;18.02;11.70;;;27.70;99.90;;;;;;5046813;28;20378;-63